sensor_id;sensor_type;location;lat;lon;timestamp;P1;durP1;ratioP1;P2;durP2;ratioP2
3050;SDS011;1535;51.098;6.414;2023-01-15T00:02:06;11.20;;;10.50;;
3050;SDS011;1535;51.098;6.414;2023-01-15T00:04:35;9.80;;;9.30;;
3050;SDS011;1535;51.098;6.414;2023-01-15T00:07:02;10.10;;;9.53;;
3050;SDS011;1535;51.098;6.414;2023-01-15T00:09:29;10.20;;;9.50;;
3050;SDS011;1535;51.098;6.414;2023-01-15T00:11:55;11.20;;;10.17;;
3050;SDS011;1535;51.098;6.414;2023-01-15T00:14:23;10.87;;;10.37;;
3050;SDS011;1535;51.098;6.414;2023-01-15T00:16:50;10.90;;;10.50;;
3050;SDS011;1535;51.098;6.414;2023-01-15T00:19:17;11.57;;;11.00;;
3050;SDS011;1535;51.098;6.414;2023-01-15T00:21:45;11.87;;;10.90;;
3050;SDS011;1535;51.098;6.414;2023-01-15T00:24:12;11.10;;;10.50;;
3050;SDS011;1535;51.098;6.414;2023-01-15T00:26:57;10.47;;;9.90;;
3050;SDS011;1535;51.098;6.414;2023-01-15T00:29:41;10.33;;;9.70;;
3050;SDS011;1535;51.098;6.414;2023-01-15T00:32:08;10.20;;;9.60;;
3050;SDS011;1535;51.098;6.414;2023-01-15T00:34:35;9.20;;;8.70;;
3050;SDS011;1535;51.098;6.414;2023-01-15T00:37:03;9.47;;;8.90;;
3050;SDS011;1535;51.098;6.414;2023-01-15T00:39:30;9.63;;;9.10;;
3050;SDS011;1535;51.098;6.414;2023-01-15T00:41:57;9.27;;;8.80;;
3050;SDS011;1535;51.098;6.414;2023-01-15T00:44:24;11.13;;;9.27;;
3050;SDS011;1535;51.098;6.414;2023-01-15T00:46:51;10.93;;;9.87;;
3050;SDS011;1535;51.098;6.414;2023-01-15T00:49:18;10.33;;;9.80;;
3050;SDS011;1535;51.098;6.414;2023-01-15T00:51:45;9.37;;;9.00;;
3050;SDS011;1535;51.098;6.414;2023-01-15T00:54:15;10.10;;;9.20;;
3050;SDS011;1535;51.098;6.414;2023-01-15T00:56:42;9.60;;;9.00;;
3050;SDS011;1535;51.098;6.414;2023-01-15T00:59:09;10.20;;;9.50;;
3050;SDS011;1535;51.098;6.414;2023-01-15T01:01:36;9.07;;;8.57;;
3050;SDS011;1535;51.098;6.414;2023-01-15T01:04:03;9.20;;;8.80;;
3050;SDS011;1535;51.098;6.414;2023-01-15T01:06:30;9.70;;;9.10;;
3050;SDS011;1535;51.098;6.414;2023-01-15T01:08:57;9.87;;;9.17;;
3050;SDS011;1535;51.098;6.414;2023-01-15T01:11:25;9.70;;;9.10;;
3050;SDS011;1535;51.098;6.414;2023-01-15T01:13:56;10.27;;;9.67;;
3050;SDS011;1535;51.098;6.414;2023-01-15T01:16:25;12.70;;;9.47;;
3050;SDS011;1535;51.098;6.414;2023-01-15T01:18:54;10.10;;;9.50;;
3050;SDS011;1535;51.098;6.414;2023-01-15T01:21:22;9.50;;;9.10;;
3050;SDS011;1535;51.098;6.414;2023-01-15T01:23:49;10.47;;;9.97;;
3050;SDS011;1535;51.098;6.414;2023-01-15T01:26:17;10.23;;;9.63;;
3050;SDS011;1535;51.098;6.414;2023-01-15T01:28:48;10.37;;;9.77;;
3050;SDS011;1535;51.098;6.414;2023-01-15T01:31:16;9.60;;;9.00;;
3050;SDS011;1535;51.098;6.414;2023-01-15T01:33:43;10.07;;;9.47;;
3050;SDS011;1535;51.098;6.414;2023-01-15T01:36:10;10.23;;;9.50;;
3050;SDS011;1535;51.098;6.414;2023-01-15T01:38:37;9.67;;;9.23;;
3050;SDS011;1535;51.098;6.414;2023-01-15T01:41:03;10.00;;;9.30;;
3050;SDS011;1535;51.098;6.414;2023-01-15T01:43:30;8.83;;;8.53;;
3050;SDS011;1535;51.098;6.414;2023-01-15T01:46:22;9.83;;;9.23;;
3050;SDS011;1535;51.098;6.414;2023-01-15T01:48:49;9.73;;;9.30;;
3050;SDS011;1535;51.098;6.414;2023-01-15T01:51:19;9.70;;;9.10;;
3050;SDS011;1535;51.098;6.414;2023-01-15T01:53:50;9.63;;;8.73;;
3050;SDS011;1535;51.098;6.414;2023-01-15T01:56:18;10.10;;;9.40;;
3050;SDS011;1535;51.098;6.414;2023-01-15T01:58:46;8.30;;;8.00;;
3050;SDS011;1535;51.098;6.414;2023-01-15T02:01:18;8.50;;;8.10;;
3050;SDS011;1535;51.098;6.414;2023-01-15T02:03:47;8.67;;;8.27;;
3050;SDS011;1535;51.098;6.414;2023-01-15T02:06:15;8.60;;;8.10;;
3050;SDS011;1535;51.098;6.414;2023-01-15T02:08:42;8.47;;;7.87;;
3050;SDS011;1535;51.098;6.414;2023-01-15T02:11:11;7.93;;;7.57;;
3050;SDS011;1535;51.098;6.414;2023-01-15T02:13:43;8.90;;;8.10;;
3050;SDS011;1535;51.098;6.414;2023-01-15T02:16:15;9.40;;;8.60;;
3050;SDS011;1535;51.098;6.414;2023-01-15T02:18:48;16.00;;;8.67;;
3050;SDS011;1535;51.098;6.414;2023-01-15T02:21:22;8.73;;;8.23;;
3050;SDS011;1535;51.098;6.414;2023-01-15T02:24:00;9.50;;;8.90;;
3050;SDS011;1535;51.098;6.414;2023-01-15T02:26:54;7.83;;;7.13;;
3050;SDS011;1535;51.098;6.414;2023-01-15T02:29:29;7.67;;;7.37;;
3050;SDS011;1535;51.098;6.414;2023-01-15T02:32:01;7.73;;;7.33;;
3050;SDS011;1535;51.098;6.414;2023-01-15T02:34:32;8.67;;;7.70;;
3050;SDS011;1535;51.098;6.414;2023-01-15T02:37:04;7.90;;;7.47;;
3050;SDS011;1535;51.098;6.414;2023-01-15T02:39:34;8.90;;;8.20;;
3050;SDS011;1535;51.098;6.414;2023-01-15T02:42:06;8.27;;;7.70;;
3050;SDS011;1535;51.098;6.414;2023-01-15T02:44:34;8.53;;;7.93;;
3050;SDS011;1535;51.098;6.414;2023-01-15T02:47:04;8.00;;;7.50;;
3050;SDS011;1535;51.098;6.414;2023-01-15T02:49:32;15.10;;;8.00;;
3050;SDS011;1535;51.098;6.414;2023-01-15T02:52:01;8.37;;;7.97;;
3050;SDS011;1535;51.098;6.414;2023-01-15T02:54:40;7.90;;;7.47;;
3050;SDS011;1535;51.098;6.414;2023-01-15T02:57:11;7.83;;;7.47;;
3050;SDS011;1535;51.098;6.414;2023-01-15T02:59:41;8.30;;;7.50;;
3050;SDS011;1535;51.098;6.414;2023-01-15T03:02:12;9.13;;;7.27;;
3050;SDS011;1535;51.098;6.414;2023-01-15T03:04:46;7.80;;;7.40;;
3050;SDS011;1535;51.098;6.414;2023-01-15T03:07:18;8.83;;;8.33;;
3050;SDS011;1535;51.098;6.414;2023-01-15T03:09:49;8.90;;;8.30;;
3050;SDS011;1535;51.098;6.414;2023-01-15T03:12:21;8.60;;;8.10;;
3050;SDS011;1535;51.098;6.414;2023-01-15T03:14:55;9.77;;;8.83;;
3050;SDS011;1535;51.098;6.414;2023-01-15T03:17:30;9.70;;;9.10;;
3050;SDS011;1535;51.098;6.414;2023-01-15T03:20:01;9.67;;;8.87;;
3050;SDS011;1535;51.098;6.414;2023-01-15T03:22:34;9.30;;;8.70;;
3050;SDS011;1535;51.098;6.414;2023-01-15T03:25:05;9.03;;;8.50;;
3050;SDS011;1535;51.098;6.414;2023-01-15T03:27:38;9.10;;;8.20;;
3050;SDS011;1535;51.098;6.414;2023-01-15T03:30:06;8.23;;;7.73;;
3050;SDS011;1535;51.098;6.414;2023-01-15T03:32:34;8.97;;;8.30;;
3050;SDS011;1535;51.098;6.414;2023-01-15T03:35:03;8.53;;;8.13;;
3050;SDS011;1535;51.098;6.414;2023-01-15T03:37:32;9.83;;;9.10;;
3050;SDS011;1535;51.098;6.414;2023-01-15T03:39:59;8.93;;;8.20;;
3050;SDS011;1535;51.098;6.414;2023-01-15T03:42:28;8.97;;;8.10;;
3050;SDS011;1535;51.098;6.414;2023-01-15T03:45:08;8.30;;;8.00;;
3050;SDS011;1535;51.098;6.414;2023-01-15T03:47:42;11.57;;;10.70;;
3050;SDS011;1535;51.098;6.414;2023-01-15T03:50:21;8.53;;;7.83;;
3050;SDS011;1535;51.098;6.414;2023-01-15T03:52:55;8.67;;;8.17;;
3050;SDS011;1535;51.098;6.414;2023-01-15T03:55:31;9.60;;;8.43;;
3050;SDS011;1535;51.098;6.414;2023-01-15T03:58:11;9.20;;;8.40;;
3050;SDS011;1535;51.098;6.414;2023-01-15T04:00:45;9.90;;;9.30;;
3050;SDS011;1535;51.098;6.414;2023-01-15T04:03:15;9.57;;;8.27;;
3050;SDS011;1535;51.098;6.414;2023-01-15T04:05:44;9.17;;;8.30;;
3050;SDS011;1535;51.098;6.414;2023-01-15T04:08:12;8.80;;;7.90;;
3050;SDS011;1535;51.098;6.414;2023-01-15T04:10:49;8.70;;;8.10;;
3050;SDS011;1535;51.098;6.414;2023-01-15T04:13:17;10.93;;;7.80;;
3050;SDS011;1535;51.098;6.414;2023-01-15T04:15:45;8.67;;;8.07;;
3050;SDS011;1535;51.098;6.414;2023-01-15T04:18:12;8.87;;;8.07;;
3050;SDS011;1535;51.098;6.414;2023-01-15T04:20:39;9.47;;;8.47;;
3050;SDS011;1535;51.098;6.414;2023-01-15T04:23:07;8.53;;;7.77;;
3050;SDS011;1535;51.098;6.414;2023-01-15T04:25:35;8.80;;;8.00;;
3050;SDS011;1535;51.098;6.414;2023-01-15T04:28:03;8.67;;;8.10;;
3050;SDS011;1535;51.098;6.414;2023-01-15T04:30:30;8.40;;;8.00;;
3050;SDS011;1535;51.098;6.414;2023-01-15T04:32:58;9.13;;;8.30;;
3050;SDS011;1535;51.098;6.414;2023-01-15T04:35:25;8.60;;;8.17;;
3050;SDS011;1535;51.098;6.414;2023-01-15T04:37:53;8.87;;;7.93;;
3050;SDS011;1535;51.098;6.414;2023-01-15T04:40:20;9.00;;;8.47;;
3050;SDS011;1535;51.098;6.414;2023-01-15T04:43:07;9.07;;;8.27;;
3050;SDS011;1535;51.098;6.414;2023-01-15T04:45:52;13.70;;;8.53;;
3050;SDS011;1535;51.098;6.414;2023-01-15T04:48:20;8.67;;;7.90;;
3050;SDS011;1535;51.098;6.414;2023-01-15T04:50:47;8.87;;;8.07;;
3050;SDS011;1535;51.098;6.414;2023-01-15T04:53:15;10.70;;;8.43;;
3050;SDS011;1535;51.098;6.414;2023-01-15T04:55:42;8.90;;;8.20;;
3050;SDS011;1535;51.098;6.414;2023-01-15T04:58:09;11.73;;;7.77;;
3050;SDS011;1535;51.098;6.414;2023-01-15T05:00:36;9.27;;;8.57;;
3050;SDS011;1535;51.098;6.414;2023-01-15T05:03:03;8.63;;;7.93;;
3050;SDS011;1535;51.098;6.414;2023-01-15T05:05:31;8.90;;;8.10;;
3050;SDS011;1535;51.098;6.414;2023-01-15T05:07:57;14.13;;;8.77;;
3050;SDS011;1535;51.098;6.414;2023-01-15T05:10:24;8.37;;;7.77;;
3050;SDS011;1535;51.098;6.414;2023-01-15T05:12:51;8.40;;;7.80;;
3050;SDS011;1535;51.098;6.414;2023-01-15T05:15:18;9.20;;;8.10;;
3050;SDS011;1535;51.098;6.414;2023-01-15T05:17:45;10.40;;;8.80;;
3050;SDS011;1535;51.098;6.414;2023-01-15T05:20:12;9.07;;;8.37;;
3050;SDS011;1535;51.098;6.414;2023-01-15T05:22:41;9.00;;;8.30;;
3050;SDS011;1535;51.098;6.414;2023-01-15T05:25:08;10.30;;;9.37;;
3050;SDS011;1535;51.098;6.414;2023-01-15T05:27:35;8.60;;;8.07;;
3050;SDS011;1535;51.098;6.414;2023-01-15T05:30:01;9.50;;;8.90;;
3050;SDS011;1535;51.098;6.414;2023-01-15T05:32:29;12.63;;;9.43;;
3050;SDS011;1535;51.098;6.414;2023-01-15T05:34:56;10.13;;;9.17;;
3050;SDS011;1535;51.098;6.414;2023-01-15T05:37:22;8.40;;;8.10;;
3050;SDS011;1535;51.098;6.414;2023-01-15T05:39:51;10.80;;;8.80;;
3050;SDS011;1535;51.098;6.414;2023-01-15T05:42:18;8.90;;;8.17;;
3050;SDS011;1535;51.098;6.414;2023-01-15T05:44:45;8.63;;;7.97;;
3050;SDS011;1535;51.098;6.414;2023-01-15T05:47:11;8.83;;;8.37;;
3050;SDS011;1535;51.098;6.414;2023-01-15T05:49:38;9.27;;;7.63;;
3050;SDS011;1535;51.098;6.414;2023-01-15T05:52:05;8.60;;;8.00;;
3050;SDS011;1535;51.098;6.414;2023-01-15T05:54:34;8.90;;;8.10;;
3050;SDS011;1535;51.098;6.414;2023-01-15T05:57:02;9.40;;;8.53;;
3050;SDS011;1535;51.098;6.414;2023-01-15T05:59:29;9.00;;;8.30;;
3050;SDS011;1535;51.098;6.414;2023-01-15T06:01:57;8.90;;;8.10;;
3050;SDS011;1535;51.098;6.414;2023-01-15T06:04:24;10.00;;;9.00;;
3050;SDS011;1535;51.098;6.414;2023-01-15T06:06:52;10.00;;;8.00;;
3050;SDS011;1535;51.098;6.414;2023-01-15T06:09:20;9.13;;;8.40;;
3050;SDS011;1535;51.098;6.414;2023-01-15T06:11:47;11.07;;;8.70;;
3050;SDS011;1535;51.098;6.414;2023-01-15T06:14:15;10.70;;;7.70;;
3050;SDS011;1535;51.098;6.414;2023-01-15T06:16:41;11.47;;;8.50;;
3050;SDS011;1535;51.098;6.414;2023-01-15T06:19:09;8.13;;;7.70;;
3050;SDS011;1535;51.098;6.414;2023-01-15T06:21:38;9.03;;;8.33;;
3050;SDS011;1535;51.098;6.414;2023-01-15T06:24:06;9.13;;;8.37;;
3050;SDS011;1535;51.098;6.414;2023-01-15T06:26:33;13.57;;;8.10;;
3050;SDS011;1535;51.098;6.414;2023-01-15T06:29:00;9.10;;;8.20;;
3050;SDS011;1535;51.098;6.414;2023-01-15T06:31:27;8.63;;;8.10;;
3050;SDS011;1535;51.098;6.414;2023-01-15T06:33:56;10.03;;;9.03;;
3050;SDS011;1535;51.098;6.414;2023-01-15T06:36:23;9.20;;;8.50;;
3050;SDS011;1535;51.098;6.414;2023-01-15T06:38:51;9.43;;;8.67;;
3050;SDS011;1535;51.098;6.414;2023-01-15T06:41:19;9.00;;;8.60;;
3050;SDS011;1535;51.098;6.414;2023-01-15T06:44:05;10.37;;;8.00;;
3050;SDS011;1535;51.098;6.414;2023-01-15T06:46:54;8.00;;;7.70;;
3050;SDS011;1535;51.098;6.414;2023-01-15T06:49:39;11.80;;;9.13;;
3050;SDS011;1535;51.098;6.414;2023-01-15T06:52:06;9.37;;;8.77;;
3050;SDS011;1535;51.098;6.414;2023-01-15T06:54:33;9.10;;;8.50;;
3050;SDS011;1535;51.098;6.414;2023-01-15T06:57:00;9.47;;;8.67;;
3050;SDS011;1535;51.098;6.414;2023-01-15T06:59:27;10.10;;;8.83;;
3050;SDS011;1535;51.098;6.414;2023-01-15T07:01:55;12.00;;;8.97;;
3050;SDS011;1535;51.098;6.414;2023-01-15T07:04:22;10.60;;;8.67;;
3050;SDS011;1535;51.098;6.414;2023-01-15T07:06:50;9.97;;;9.17;;
3050;SDS011;1535;51.098;6.414;2023-01-15T07:09:16;8.70;;;8.30;;
3050;SDS011;1535;51.098;6.414;2023-01-15T07:11:43;9.73;;;8.80;;
3050;SDS011;1535;51.098;6.414;2023-01-15T07:14:16;10.07;;;9.17;;
3050;SDS011;1535;51.098;6.414;2023-01-15T07:16:44;9.77;;;8.97;;
3050;SDS011;1535;51.098;6.414;2023-01-15T07:19:13;9.57;;;8.97;;
3050;SDS011;1535;51.098;6.414;2023-01-15T07:21:39;9.60;;;8.90;;
3050;SDS011;1535;51.098;6.414;2023-01-15T07:24:07;9.93;;;9.07;;
3050;SDS011;1535;51.098;6.414;2023-01-15T07:26:34;9.30;;;8.60;;
3050;SDS011;1535;51.098;6.414;2023-01-15T07:29:01;9.43;;;8.70;;
3050;SDS011;1535;51.098;6.414;2023-01-15T07:31:28;8.73;;;8.23;;
3050;SDS011;1535;51.098;6.414;2023-01-15T07:33:55;9.80;;;8.80;;
3050;SDS011;1535;51.098;6.414;2023-01-15T07:36:23;9.13;;;8.43;;
3050;SDS011;1535;51.098;6.414;2023-01-15T07:38:50;8.90;;;8.30;;
3050;SDS011;1535;51.098;6.414;2023-01-15T07:41:17;10.00;;;9.20;;
3050;SDS011;1535;51.098;6.414;2023-01-15T07:44:02;11.60;;;9.23;;
3050;SDS011;1535;51.098;6.414;2023-01-15T07:46:46;10.20;;;9.30;;
3050;SDS011;1535;51.098;6.414;2023-01-15T07:49:30;11.33;;;10.67;;
3050;SDS011;1535;51.098;6.414;2023-01-15T07:52:14;10.40;;;9.60;;
3050;SDS011;1535;51.098;6.414;2023-01-15T07:54:43;9.63;;;9.03;;
3050;SDS011;1535;51.098;6.414;2023-01-15T07:57:11;11.17;;;10.23;;
3050;SDS011;1535;51.098;6.414;2023-01-15T07:59:40;10.00;;;9.50;;
3050;SDS011;1535;51.098;6.414;2023-01-15T08:02:08;9.80;;;9.40;;
3050;SDS011;1535;51.098;6.414;2023-01-15T08:04:34;11.03;;;10.40;;
3050;SDS011;1535;51.098;6.414;2023-01-15T08:07:02;10.20;;;9.63;;
3050;SDS011;1535;51.098;6.414;2023-01-15T08:09:31;10.93;;;9.90;;
3050;SDS011;1535;51.098;6.414;2023-01-15T08:11:58;11.50;;;10.30;;
3050;SDS011;1535;51.098;6.414;2023-01-15T08:14:43;11.10;;;10.30;;
3050;SDS011;1535;51.098;6.414;2023-01-15T08:17:28;10.40;;;9.93;;
3050;SDS011;1535;51.098;6.414;2023-01-15T08:19:55;10.50;;;10.00;;
3050;SDS011;1535;51.098;6.414;2023-01-15T08:22:22;10.53;;;10.13;;
3050;SDS011;1535;51.098;6.414;2023-01-15T08:24:51;10.90;;;10.40;;
3050;SDS011;1535;51.098;6.414;2023-01-15T08:27:18;10.10;;;9.30;;
3050;SDS011;1535;51.098;6.414;2023-01-15T08:29:45;10.60;;;10.10;;
3050;SDS011;1535;51.098;6.414;2023-01-15T08:32:11;9.60;;;9.20;;
3050;SDS011;1535;51.098;6.414;2023-01-15T08:34:38;10.00;;;9.50;;
3050;SDS011;1535;51.098;6.414;2023-01-15T08:37:05;9.13;;;8.73;;
3050;SDS011;1535;51.098;6.414;2023-01-15T08:39:32;11.97;;;10.77;;
3050;SDS011;1535;51.098;6.414;2023-01-15T08:42:00;10.50;;;9.70;;
3050;SDS011;1535;51.098;6.414;2023-01-15T08:44:26;9.17;;;8.57;;
3050;SDS011;1535;51.098;6.414;2023-01-15T08:46:53;9.17;;;8.60;;
3050;SDS011;1535;51.098;6.414;2023-01-15T08:49:20;9.00;;;8.20;;
3050;SDS011;1535;51.098;6.414;2023-01-15T08:51:47;8.50;;;8.10;;
3050;SDS011;1535;51.098;6.414;2023-01-15T08:54:16;9.33;;;8.40;;
3050;SDS011;1535;51.098;6.414;2023-01-15T08:56:45;8.40;;;8.00;;
3050;SDS011;1535;51.098;6.414;2023-01-15T08:59:15;8.07;;;7.47;;
3050;SDS011;1535;51.098;6.414;2023-01-15T09:01:42;8.30;;;7.47;;
3050;SDS011;1535;51.098;6.414;2023-01-15T09:04:12;8.97;;;8.27;;
3050;SDS011;1535;51.098;6.414;2023-01-15T09:06:40;12.70;;;8.60;;
3050;SDS011;1535;51.098;6.414;2023-01-15T09:09:08;9.33;;;8.13;;
3050;SDS011;1535;51.098;6.414;2023-01-15T09:11:36;9.27;;;8.33;;
3050;SDS011;1535;51.098;6.414;2023-01-15T09:14:04;8.63;;;8.03;;
3050;SDS011;1535;51.098;6.414;2023-01-15T09:16:32;8.43;;;7.93;;
3050;SDS011;1535;51.098;6.414;2023-01-15T09:18:59;11.17;;;8.77;;
3050;SDS011;1535;51.098;6.414;2023-01-15T09:21:26;9.00;;;8.20;;
3050;SDS011;1535;51.098;6.414;2023-01-15T09:23:53;8.40;;;7.90;;
3050;SDS011;1535;51.098;6.414;2023-01-15T09:26:24;13.47;;;8.53;;
3050;SDS011;1535;51.098;6.414;2023-01-15T09:28:55;10.73;;;8.60;;
3050;SDS011;1535;51.098;6.414;2023-01-15T09:31:23;9.73;;;9.20;;
3050;SDS011;1535;51.098;6.414;2023-01-15T09:33:53;11.43;;;10.37;;
3050;SDS011;1535;51.098;6.414;2023-01-15T09:36:22;9.60;;;8.90;;
3050;SDS011;1535;51.098;6.414;2023-01-15T09:38:49;9.73;;;9.13;;
3050;SDS011;1535;51.098;6.414;2023-01-15T09:41:16;10.57;;;9.63;;
3050;SDS011;1535;51.098;6.414;2023-01-15T09:44:09;10.40;;;9.53;;
3050;SDS011;1535;51.098;6.414;2023-01-15T09:46:50;11.57;;;10.63;;
3050;SDS011;1535;51.098;6.414;2023-01-15T09:49:31;11.20;;;10.30;;
3050;SDS011;1535;51.098;6.414;2023-01-15T09:52:07;12.27;;;11.13;;
3050;SDS011;1535;51.098;6.414;2023-01-15T09:54:47;10.70;;;10.20;;
3050;SDS011;1535;51.098;6.414;2023-01-15T09:57:23;12.67;;;11.40;;
3050;SDS011;1535;51.098;6.414;2023-01-15T09:59:53;12.07;;;10.80;;
3050;SDS011;1535;51.098;6.414;2023-01-15T10:02:28;10.77;;;9.93;;
3050;SDS011;1535;51.098;6.414;2023-01-15T10:05:02;11.53;;;10.83;;
3050;SDS011;1535;51.098;6.414;2023-01-15T10:07:35;12.17;;;11.00;;
3050;SDS011;1535;51.098;6.414;2023-01-15T10:10:10;12.37;;;11.60;;
3050;SDS011;1535;51.098;6.414;2023-01-15T10:12:40;12.20;;;11.40;;
3050;SDS011;1535;51.098;6.414;2023-01-15T10:15:15;13.43;;;12.43;;
3050;SDS011;1535;51.098;6.414;2023-01-15T10:17:48;13.17;;;11.97;;
3050;SDS011;1535;51.098;6.414;2023-01-15T10:20:22;12.77;;;12.00;;
3050;SDS011;1535;51.098;6.414;2023-01-15T10:23:04;12.63;;;11.93;;
3050;SDS011;1535;51.098;6.414;2023-01-15T10:25:41;17.00;;;13.10;;
3050;SDS011;1535;51.098;6.414;2023-01-15T10:28:16;14.17;;;13.20;;
3050;SDS011;1535;51.098;6.414;2023-01-15T10:30:45;13.10;;;11.97;;
3050;SDS011;1535;51.098;6.414;2023-01-15T10:33:20;12.33;;;11.63;;
3050;SDS011;1535;51.098;6.414;2023-01-15T10:36:09;15.50;;;13.13;;
3050;SDS011;1535;51.098;6.414;2023-01-15T10:38:43;13.00;;;12.20;;
3050;SDS011;1535;51.098;6.414;2023-01-15T10:41:24;13.50;;;12.33;;
3050;SDS011;1535;51.098;6.414;2023-01-15T10:44:04;13.03;;;12.20;;
3050;SDS011;1535;51.098;6.414;2023-01-15T10:46:39;13.47;;;12.13;;
3050;SDS011;1535;51.098;6.414;2023-01-15T10:49:11;12.27;;;11.60;;
3050;SDS011;1535;51.098;6.414;2023-01-15T10:51:41;12.87;;;11.97;;
3050;SDS011;1535;51.098;6.414;2023-01-15T10:54:13;13.63;;;12.50;;
3050;SDS011;1535;51.098;6.414;2023-01-15T10:56:48;15.10;;;13.60;;
3050;SDS011;1535;51.098;6.414;2023-01-15T10:59:21;13.43;;;12.53;;
3050;SDS011;1535;51.098;6.414;2023-01-15T11:01:53;13.80;;;12.70;;
3050;SDS011;1535;51.098;6.414;2023-01-15T11:04:23;14.90;;;13.90;;
3050;SDS011;1535;51.098;6.414;2023-01-15T11:06:53;14.60;;;13.30;;
3050;SDS011;1535;51.098;6.414;2023-01-15T11:09:22;14.83;;;13.53;;
3050;SDS011;1535;51.098;6.414;2023-01-15T11:11:56;14.60;;;13.33;;
3050;SDS011;1535;51.098;6.414;2023-01-15T11:14:48;14.67;;;13.70;;
3050;SDS011;1535;51.098;6.414;2023-01-15T11:17:34;13.83;;;13.03;;
3050;SDS011;1535;51.098;6.414;2023-01-15T11:20:24;14.23;;;13.13;;
3050;SDS011;1535;51.098;6.414;2023-01-15T11:22:56;13.87;;;12.90;;
3050;SDS011;1535;51.098;6.414;2023-01-15T11:25:32;13.70;;;12.70;;
3050;SDS011;1535;51.098;6.414;2023-01-15T11:28:02;15.87;;;13.93;;
3050;SDS011;1535;51.098;6.414;2023-01-15T11:30:32;13.77;;;13.00;;
3050;SDS011;1535;51.098;6.414;2023-01-15T11:33:02;13.37;;;12.67;;
3050;SDS011;1535;51.098;6.414;2023-01-15T11:35:30;14.13;;;13.00;;
3050;SDS011;1535;51.098;6.414;2023-01-15T11:38:05;14.93;;;13.87;;
3050;SDS011;1535;51.098;6.414;2023-01-15T11:40:33;14.83;;;13.90;;
3050;SDS011;1535;51.098;6.414;2023-01-15T11:42:59;14.97;;;14.10;;
3050;SDS011;1535;51.098;6.414;2023-01-15T11:45:48;14.53;;;13.23;;
3050;SDS011;1535;51.098;6.414;2023-01-15T11:48:34;14.13;;;13.43;;
3050;SDS011;1535;51.098;6.414;2023-01-15T11:51:26;13.07;;;12.47;;
3050;SDS011;1535;51.098;6.414;2023-01-15T11:53:58;13.97;;;13.20;;
3050;SDS011;1535;51.098;6.414;2023-01-15T11:56:28;13.47;;;12.70;;
3050;SDS011;1535;51.098;6.414;2023-01-15T11:58:58;14.17;;;13.17;;
3050;SDS011;1535;51.098;6.414;2023-01-15T12:01:28;13.40;;;12.80;;
3050;SDS011;1535;51.098;6.414;2023-01-15T12:03:57;14.47;;;13.47;;
3050;SDS011;1535;51.098;6.414;2023-01-15T12:06:25;13.40;;;12.60;;
3050;SDS011;1535;51.098;6.414;2023-01-15T12:08:54;14.67;;;13.37;;
3050;SDS011;1535;51.098;6.414;2023-01-15T12:11:39;13.87;;;12.87;;
3050;SDS011;1535;51.098;6.414;2023-01-15T12:14:26;13.70;;;13.00;;
3050;SDS011;1535;51.098;6.414;2023-01-15T12:17:04;14.50;;;13.60;;
3050;SDS011;1535;51.098;6.414;2023-01-15T12:19:40;15.23;;;13.70;;
3050;SDS011;1535;51.098;6.414;2023-01-15T12:22:18;14.33;;;13.43;;
3050;SDS011;1535;51.098;6.414;2023-01-15T12:25:15;14.90;;;13.67;;
3050;SDS011;1535;51.098;6.414;2023-01-15T12:27:58;14.73;;;13.73;;
3050;SDS011;1535;51.098;6.414;2023-01-15T12:30:35;14.50;;;13.50;;
3050;SDS011;1535;51.098;6.414;2023-01-15T12:33:12;17.67;;;14.17;;
3050;SDS011;1535;51.098;6.414;2023-01-15T12:35:46;14.17;;;13.47;;
3050;SDS011;1535;51.098;6.414;2023-01-15T12:38:21;14.27;;;13.50;;
3050;SDS011;1535;51.098;6.414;2023-01-15T12:41:00;15.20;;;13.83;;
3050;SDS011;1535;51.098;6.414;2023-01-15T12:43:33;14.37;;;13.37;;
3050;SDS011;1535;51.098;6.414;2023-01-15T12:46:17;13.87;;;13.20;;
3050;SDS011;1535;51.098;6.414;2023-01-15T12:48:51;15.70;;;14.33;;
3050;SDS011;1535;51.098;6.414;2023-01-15T12:51:24;14.10;;;13.30;;
3050;SDS011;1535;51.098;6.414;2023-01-15T12:53:58;15.20;;;14.00;;
3050;SDS011;1535;51.098;6.414;2023-01-15T12:56:32;14.17;;;13.17;;
3050;SDS011;1535;51.098;6.414;2023-01-15T12:59:12;14.67;;;13.30;;
3050;SDS011;1535;51.098;6.414;2023-01-15T13:01:48;14.30;;;13.50;;
3050;SDS011;1535;51.098;6.414;2023-01-15T13:04:21;13.40;;;12.60;;
3050;SDS011;1535;51.098;6.414;2023-01-15T13:06:55;13.27;;;12.63;;
3050;SDS011;1535;51.098;6.414;2023-01-15T13:09:29;14.67;;;13.67;;
3050;SDS011;1535;51.098;6.414;2023-01-15T13:12:06;13.83;;;13.03;;
3050;SDS011;1535;51.098;6.414;2023-01-15T13:14:37;14.73;;;13.73;;
3050;SDS011;1535;51.098;6.414;2023-01-15T13:17:04;15.33;;;14.30;;
3050;SDS011;1535;51.098;6.414;2023-01-15T13:19:40;14.40;;;13.60;;
3050;SDS011;1535;51.098;6.414;2023-01-15T13:22:15;14.67;;;13.77;;
3050;SDS011;1535;51.098;6.414;2023-01-15T13:24:55;14.37;;;13.57;;
3050;SDS011;1535;51.098;6.414;2023-01-15T13:27:44;16.27;;;14.37;;
3050;SDS011;1535;51.098;6.414;2023-01-15T13:30:30;14.17;;;13.53;;
3050;SDS011;1535;51.098;6.414;2023-01-15T13:33:10;14.73;;;13.70;;
3050;SDS011;1535;51.098;6.414;2023-01-15T13:35:44;14.30;;;13.40;;
3050;SDS011;1535;51.098;6.414;2023-01-15T13:38:14;14.07;;;13.27;;
3050;SDS011;1535;51.098;6.414;2023-01-15T13:40:44;14.90;;;14.10;;
3050;SDS011;1535;51.098;6.414;2023-01-15T13:43:21;14.03;;;13.30;;
3050;SDS011;1535;51.098;6.414;2023-01-15T13:45:55;14.63;;;13.60;;
3050;SDS011;1535;51.098;6.414;2023-01-15T13:48:24;14.83;;;13.73;;
3050;SDS011;1535;51.098;6.414;2023-01-15T13:50:56;14.63;;;13.87;;
3050;SDS011;1535;51.098;6.414;2023-01-15T13:53:25;13.73;;;12.97;;
3050;SDS011;1535;51.098;6.414;2023-01-15T13:55:54;14.23;;;13.47;;
3050;SDS011;1535;51.098;6.414;2023-01-15T13:58:24;13.57;;;12.97;;
3050;SDS011;1535;51.098;6.414;2023-01-15T14:01:03;14.10;;;13.40;;
3050;SDS011;1535;51.098;6.414;2023-01-15T14:03:32;14.50;;;13.73;;
3050;SDS011;1535;51.098;6.414;2023-01-15T14:06:03;15.00;;;13.83;;
3050;SDS011;1535;51.098;6.414;2023-01-15T14:08:38;15.07;;;14.27;;
3050;SDS011;1535;51.098;6.414;2023-01-15T14:20:18;14.10;;;13.40;;
3050;SDS011;1535;51.098;6.414;2023-01-15T14:23:03;14.40;;;13.60;;
3050;SDS011;1535;51.098;6.414;2023-01-15T14:25:43;14.70;;;13.80;;
3050;SDS011;1535;51.098;6.414;2023-01-15T14:28:20;14.20;;;13.50;;
3050;SDS011;1535;51.098;6.414;2023-01-15T14:31:08;14.50;;;13.63;;
3050;SDS011;1535;51.098;6.414;2023-01-15T14:33:52;14.83;;;14.03;;
3050;SDS011;1535;51.098;6.414;2023-01-15T14:36:32;13.43;;;12.83;;
3050;SDS011;1535;51.098;6.414;2023-01-15T14:39:03;15.50;;;14.30;;
3050;SDS011;1535;51.098;6.414;2023-01-15T14:41:43;14.83;;;14.03;;
3050;SDS011;1535;51.098;6.414;2023-01-15T14:44:25;14.43;;;13.63;;
3050;SDS011;1535;51.098;6.414;2023-01-15T14:46:56;15.07;;;13.57;;
3050;SDS011;1535;51.098;6.414;2023-01-15T14:49:28;14.80;;;13.73;;
3050;SDS011;1535;51.098;6.414;2023-01-15T14:51:56;14.83;;;14.13;;
3050;SDS011;1535;51.098;6.414;2023-01-15T14:54:23;15.00;;;13.97;;
3050;SDS011;1535;51.098;6.414;2023-01-15T14:56:52;14.50;;;13.80;;
3050;SDS011;1535;51.098;6.414;2023-01-15T14:59:22;14.57;;;13.87;;
3050;SDS011;1535;51.098;6.414;2023-01-15T15:01:51;14.60;;;13.90;;
3050;SDS011;1535;51.098;6.414;2023-01-15T15:04:26;14.43;;;13.63;;
3050;SDS011;1535;51.098;6.414;2023-01-15T15:07:02;14.10;;;13.20;;
3050;SDS011;1535;51.098;6.414;2023-01-15T15:09:33;14.10;;;13.40;;
3050;SDS011;1535;51.098;6.414;2023-01-15T15:12:06;14.13;;;13.53;;
3050;SDS011;1535;51.098;6.414;2023-01-15T15:14:52;14.83;;;13.97;;
3050;SDS011;1535;51.098;6.414;2023-01-15T15:17:28;15.07;;;14.23;;
3050;SDS011;1535;51.098;6.414;2023-01-15T15:20:03;15.53;;;14.13;;
3050;SDS011;1535;51.098;6.414;2023-01-15T15:22:45;15.63;;;14.63;;
3050;SDS011;1535;51.098;6.414;2023-01-15T15:25:17;13.60;;;13.00;;
3050;SDS011;1535;51.098;6.414;2023-01-15T15:27:47;13.30;;;12.60;;
3050;SDS011;1535;51.098;6.414;2023-01-15T15:30:25;13.80;;;12.70;;
3050;SDS011;1535;51.098;6.414;2023-01-15T15:32:55;13.10;;;12.40;;
3050;SDS011;1535;51.098;6.414;2023-01-15T15:35:23;12.90;;;12.00;;
3050;SDS011;1535;51.098;6.414;2023-01-15T15:37:54;12.77;;;12.17;;